Time;durP1;ratioP1;P1;durP2;ratioP2;P2;SDS_P1;SDS_P2;PMS_P1;PMS_P2;Temp;Humidity;BMP_temperature;BMP_pressure;BME280_temperature;BME280_humidity;BME280_pressure;Samples;Min_cycle;Max_cycle;Signal;HPM_P1;HPM_P2
2022/12/20 00:00:14;;;;;;;3.45;1.40;;;10.10;99.90;;;10.17;100.00;101097.78;5164321;28;20061;-71
2022/12/20 00:02:46;;;;;;;2.20;1.42;;;10.20;99.90;;;10.16;100.00;101111.63;5164270;28;20070;-69
2022/12/20 00:05:18;;;;;;;2.40;1.35;;;10.10;99.90;;;10.13;100.00;101107.19;5164579;28;20046;-69
2022/12/20 00:07:50;;;;;;;1.95;1.25;;;10.20;99.90;;;10.13;100.00;101106.31;5164103;28;20411;-70
2022/12/20 00:10:23;;;;;;;3.58;1.15;;;10.10;99.90;;;10.13;100.00;101103.72;5164422;28;20406;-71
2022/12/20 00:12:56;;;;;;;2.53;1.70;;;10.10;99.90;;;10.18;100.00;101105.69;5163043;28;20058;-69
2022/12/20 00:15:28;;;;;;;1.83;1.10;;;10.10;99.90;;;10.22;100.00;101098.88;5164305;28;20053;-69
2022/12/20 00:18:00;;;;;;;2.25;1.48;;;10.20;99.90;;;10.22;100.00;101096.25;5163633;28;20048;-69
2022/12/20 00:20:32;;;;;;;4.80;1.40;;;10.20;99.90;;;10.28;100.00;101096.53;5164239;28;20415;-70
2022/12/20 00:23:04;;;;;;;3.08;1.65;;;10.30;99.90;;;10.31;100.00;101088.88;5164055;28;20069;-70
2022/12/20 00:25:38;;;;;;;3.47;1.70;;;10.30;99.90;;;10.35;100.00;101088.16;5163875;28;20050;-69
2022/12/20 00:28:10;;;;;;;3.38;1.50;;;10.30;99.90;;;10.35;100.00;101077.72;5163719;28;20046;-69
2022/12/20 00:30:42;;;;;;;3.05;1.60;;;10.30;99.90;;;10.32;100.00;101061.97;5162826;28;20144;-70
2022/12/20 00:33:14;;;;;;;3.88;2.10;;;10.30;99.90;;;10.29;100.00;101065.34;5166448;28;20125;-70
2022/12/20 00:35:46;;;;;;;3.35;1.88;;;10.30;99.90;;;10.28;100.00;101060.06;5167873;28;20042;-69
2022/12/20 00:38:18;;;;;;;2.90;1.45;;;10.30;99.90;;;10.28;100.00;101049.66;5166487;28;20455;-69
2022/12/20 00:41:01;;;;;;;2.35;1.52;;;10.30;99.90;;;10.27;100.00;101045.28;5167749;28;20038;-69
2022/12/20 00:43:35;;;;;;;3.08;1.90;;;10.30;99.90;;;10.25;100.00;101034.78;5163549;28;20050;-70
2022/12/20 00:46:10;;;;;;;4.30;1.65;;;10.30;99.90;;;10.22;100.00;101028.53;5167740;28;20061;-69
2022/12/20 00:48:43;;;;;;;3.08;1.70;;;10.30;99.90;;;10.15;100.00;101032.59;5166833;28;20534;-70
2022/12/20 00:51:17;;;;;;;3.75;1.63;;;10.20;99.90;;;10.09;100.00;101036.66;5167781;28;20050;-70
2022/12/20 00:53:50;;;;;;;2.13;1.60;;;10.20;99.90;;;10.03;100.00;101047.72;5167619;28;20145;-68
2022/12/20 00:56:24;;;;;;;3.45;1.70;;;10.10;99.90;;;9.98;100.00;101044.06;5167061;28;20038;-69
2022/12/20 00:58:58;;;;;;;2.95;1.63;;;10.10;99.90;;;9.93;100.00;101046.47;5166816;28;20414;-69
2022/12/20 01:01:34;;;;;;;2.83;1.67;;;10.00;99.90;;;9.88;100.00;101057.53;5168791;28;20050;-69
2022/12/20 01:04:07;;;;;;;2.30;1.48;;;9.90;99.90;;;9.84;100.00;101066.00;5167346;28;20050;-70
2022/12/20 01:06:39;;;;;;;3.08;1.63;;;9.90;99.90;;;9.79;100.00;101069.34;5168299;28;20038;-69
2022/12/20 01:09:12;;;;;;;2.25;1.80;;;9.90;99.90;;;9.75;100.00;101072.63;5167862;28;20527;-69
2022/12/20 01:11:45;;;;;;;1.60;1.25;;;9.80;99.90;;;9.71;100.00;101081.13;5168372;28;20101;-70
2022/12/20 01:14:18;;;;;;;2.30;1.35;;;9.80;99.90;;;9.68;100.00;101069.69;5167067;28;20070;-70
2022/12/20 01:16:50;;;;;;;3.72;1.80;;;9.70;99.90;;;9.63;100.00;101060.78;5165868;28;20507;-69
2022/12/20 01:19:22;;;;;;;2.75;1.67;;;9.70;99.90;;;9.66;100.00;101076.56;5165669;28;20410;-69
2022/12/20 01:21:55;;;;;;;2.97;1.85;;;9.70;99.90;;;9.71;100.00;101075.03;5165895;28;20137;-70
2022/12/20 01:24:27;;;;;;;2.78;1.60;;;9.70;99.90;;;9.74;100.00;101080.38;5166000;28;20065;-70
2022/12/20 01:27:00;;;;;;;2.63;1.80;;;9.80;99.90;;;9.73;100.00;101070.78;5165823;28;20134;-69
2022/12/20 01:29:32;;;;;;;2.88;1.83;;;9.80;99.90;;;9.72;100.00;101069.91;5165330;28;20553;-70
2022/12/20 01:32:05;;;;;;;3.17;1.80;;;9.80;99.90;;;9.74;100.00;101069.97;5167142;28;20503;-70
2022/12/20 01:34:37;;;;;;;2.78;1.60;;;9.80;99.90;;;9.74;100.00;101075.16;5167166;28;20043;-69
2022/12/20 01:37:10;;;;;;;4.70;1.92;;;9.80;99.90;;;9.74;100.00;101075.16;5166648;28;20042;-69
2022/12/20 01:39:42;;;;;;;4.93;2.15;;;9.80;99.90;;;9.70;100.00;101073.25;5166572;28;20044;-69
2022/12/20 01:42:16;;;;;;;4.30;2.35;;;9.80;99.90;;;9.68;100.00;101067.97;5166514;28;20503;-69
2022/12/20 01:45:00;;;;;;;3.78;1.80;;;9.80;99.90;;;9.67;100.00;101062.72;5165360;28;20410;-70
2022/12/20 01:47:34;;;;;;;3.97;2.00;;;9.80;99.90;;;9.65;100.00;101064.34;5166295;28;20446;-69
2022/12/20 01:50:09;;;;;;;5.38;2.00;;;9.70;99.90;;;9.60;100.00;101056.38;5166757;28;20116;-69
2022/12/20 01:52:45;;;;;;;4.68;1.95;;;9.70;99.90;;;9.59;100.00;101056.31;5165181;28;20515;-70
2022/12/20 01:55:21;;;;;;;3.28;2.05;;;9.60;99.90;;;9.56;100.00;101054.44;5166509;28;20042;-70
2022/12/20 01:57:59;;;;;;;4.43;2.38;;;9.60;99.90;;;9.51;100.00;101056.84;5166335;28;20049;-70
2022/12/20 02:00:31;;;;;;;4.05;1.98;;;9.60;99.90;;;9.54;100.00;101045.69;5164568;28;20046;-70
2022/12/20 02:03:06;;;;;;;3.20;1.88;;;9.60;99.90;;;9.54;100.00;101045.69;5165261;28;20507;-69
2022/12/20 02:05:42;;;;;;;3.95;2.10;;;9.60;99.90;;;9.55;100.00;101046.56;5165939;28;20064;-69
2022/12/20 02:08:17;;;;;;;5.57;2.50;;;9.60;99.90;;;9.56;100.00;101048.34;5165184;28;20046;-70
2022/12/20 02:11:11;;;;;;;4.32;2.10;;;9.60;99.90;;;9.57;100.00;101047.53;5166230;28;20065;-70
2022/12/20 02:13:57;;;;;;;4.80;2.20;;;9.60;99.90;;;9.55;100.00;101049.19;5164744;28;20062;-68
2022/12/20 02:16:39;;;;;;;3.17;2.10;;;9.60;99.90;;;9.52;100.00;101048.22;5164643;28;20530;-69
2022/12/20 02:19:38;;;;;;;4.18;2.00;;;9.60;99.90;;;9.55;100.00;101042.25;5164554;28;20558;-71
2022/12/20 02:22:25;;;;;;;3.03;1.92;;;9.60;99.90;;;9.56;100.00;101043.16;5164451;28;20495;-70
2022/12/20 02:25:42;;;;;;;3.75;2.22;;;9.60;99.90;;;9.58;100.00;101036.28;5165921;28;20046;-71
2022/12/20 02:28:36;;;;;;;4.32;2.00;;;9.60;99.90;;;9.58;100.00;101031.06;5158444;28;20141;-70
2022/12/20 02:31:16;;;;;;;4.30;2.10;;;9.60;99.90;;;9.59;100.00;101030.28;5165720;28;20053;-69
2022/12/20 02:33:49;;;;;;;4.78;2.10;;;9.60;99.90;;;9.57;100.00;101019.78;5164432;28;20054;-69
2022/12/20 02:36:21;;;;;;;3.72;2.08;;;9.70;99.90;;;9.58;100.00;101020.66;5165734;28;20658;-69
2022/12/20 02:38:55;;;;;;;4.72;2.05;;;9.70;99.90;;;9.60;100.00;101013.84;5163824;28;20073;-69
2022/12/20 02:41:32;;;;;;;4.75;2.00;;;9.70;99.90;;;9.58;100.00;101005.94;5164402;28;20050;-70
2022/12/20 02:47:04;;;;;;;4.45;2.00;;;9.70;99.90;;;9.61;100.00;101013.00;5165414;28;20039;-69
2022/12/20 02:49:40;;;;;;;4.72;1.63;;;9.70;99.90;;;9.61;100.00;101020.81;5163658;28;20042;-69
2022/12/20 02:52:15;;;;;;;2.55;1.73;;;9.70;99.90;;;9.59;100.00;101006.84;5164134;28;20046;-69
2022/12/20 02:54:47;;;;;;;2.38;2.03;;;9.60;99.90;;;9.62;100.00;101005.25;5163948;28;20096;-69
2022/12/20 02:57:26;;;;;;;4.68;2.17;;;9.70;99.90;;;9.62;100.00;101004.38;5163662;28;20043;-69
2022/12/20 03:00:05;;;;;;;2.55;2.00;;;9.70;99.90;;;9.61;100.00;101013.00;5163842;28;20049;-71
2022/12/20 03:05:36;;;;;;;3.08;1.70;;;9.70;99.90;;;9.59;100.00;101014.66;5163701;28;20119;-71
2022/12/20 03:08:08;;;;;;;3.55;2.13;;;9.70;99.90;;;9.61;100.00;101020.81;5164460;28;20133;-70
2022/12/20 03:10:40;;;;;;;3.05;2.00;;;9.70;99.90;;;9.60;100.00;101021.66;5163828;28;20051;-70
2022/12/20 03:13:13;;;;;;;2.17;1.77;;;9.70;99.90;;;9.57;100.00;101013.69;5165079;28;20058;-69
2022/12/20 03:15:52;;;;;;;2.70;2.08;;;9.60;99.90;;;9.55;100.00;101002.34;5165075;28;20041;-69
2022/12/20 03:18:26;;;;;;;4.00;2.13;;;9.60;99.90;;;9.57;100.00;100993.75;5162815;28;20145;-69
2022/12/20 03:20:58;;;;;;;4.07;2.00;;;9.70;99.90;;;9.59;100.00;101001.66;5179822;28;20471;-69
2022/12/20 03:23:31;;;;;;;4.05;2.10;;;9.70;99.90;;;9.60;100.00;101003.44;5164846;28;20049;-69
2022/12/20 03:26:03;;;;;;;3.72;2.13;;;9.70;99.90;;;9.61;100.00;101002.59;5179868;28;20042;-69
2022/12/20 03:28:43;;;;;;;4.25;1.98;;;9.70;99.90;;;9.61;100.00;101000.88;5162541;28;20085;-69
2022/12/20 03:31:20;;;;;;;5.05;2.38;;;9.70;99.90;;;9.61;100.00;100990.47;5163236;28;20470;-69
2022/12/20 03:33:58;;;;;;;4.68;1.73;;;9.70;99.90;;;9.61;100.00;100989.59;5179852;28;20116;-70
2022/12/20 03:36:30;;;;;;;4.15;2.10;;;9.70;99.90;;;9.60;100.00;100995.63;5164320;28;20077;-71
2022/12/20 03:39:06;;;;;;;4.70;2.38;;;9.70;99.90;;;9.56;100.00;100986.78;5162792;28;20051;-69
2022/12/20 03:41:43;;;;;;;3.05;2.08;;;9.70;99.90;;;9.55;100.00;100991.94;5163049;28;20065;-71
2022/12/20 03:44:17;;;;;;;2.97;2.03;;;9.70;99.90;;;9.52;100.00;100995.28;5164624;28;20156;-70
2022/12/20 03:46:49;;;;;;;4.95;2.13;;;9.60;99.90;;;9.52;100.00;100996.19;5163036;28;20050;-69
2022/12/20 03:49:22;;;;;;;5.40;2.40;;;9.60;99.90;;;9.51;100.00;101004.78;5162847;28;20046;-70
2022/12/20 03:51:57;;;;;;;4.10;2.13;;;9.60;99.90;;;9.50;100.00;101009.94;5163175;28;20571;-69
2022/12/20 03:54:29;;;;;;;3.92;1.90;;;9.60;99.90;;;9.48;100.00;101004.69;5163201;28;20046;-69
2022/12/20 03:57:15;;;;;;;5.28;2.75;;;9.60;99.90;;;9.49;100.00;101005.56;5162815;28;20046;-70
2022/12/20 03:59:49;;;;;;;6.72;4.30;;;9.60;99.90;;;9.45;100.00;101004.56;5162784;28;20471;-71
2022/12/20 04:02:24;;;;;;;6.80;3.75;;;9.60;99.90;;;9.41;100.00;100991.34;5162642;28;20050;-69
2022/12/20 04:04:59;;;;;;;5.78;3.38;;;9.50;99.90;;;9.39;100.00;100980.88;5162693;28;20108;-70
2022/12/20 04:07:31;;;;;;;5.65;3.72;;;9.50;99.90;;;9.35;100.00;100981.56;5162022;28;20423;-70
2022/12/20 04:10:05;;;;;;;4.38;3.22;;;9.50;99.90;;;9.33;100.00;100993.63;5162753;28;20081;-69
2022/12/20 04:12:38;;;;;;;5.05;3.05;;;9.50;99.90;;;9.32;100.00;101004.81;5164188;28;20042;-70
2022/12/20 04:15:13;;;;;;;6.88;3.05;;;9.50;99.90;;;9.30;100.00;100998.69;5179097;28;20503;-69
2022/12/20 04:17:48;;;;;;;6.53;3.85;;;9.40;99.90;;;9.31;100.00;101005.66;5162337;28;20042;-70
2022/12/20 04:20:22;;;;;;;6.18;3.33;;;9.40;99.90;;;9.33;100.00;100998.81;5162779;28;20042;-70
2022/12/20 04:23:02;;;;;;;5.30;2.50;;;9.40;99.90;;;9.34;100.00;100994.50;5163058;28;20077;-69
2022/12/20 04:25:35;;;;;;;5.53;3.22;;;9.50;99.90;;;9.34;100.00;101005.81;5162617;28;20050;-69
2022/12/20 04:28:07;;;;;;;4.38;2.60;;;9.40;99.90;;;9.34;100.00;101016.22;5163359;28;20396;-69
2022/12/20 04:30:39;;;;;;;4.18;2.97;;;9.40;99.90;;;9.34;100.00;101016.22;5162560;28;20086;-70
2022/12/20 04:33:11;;;;;;;4.93;2.40;;;9.40;99.90;;;9.33;100.00;100995.34;5163959;28;20496;-68
2022/12/20 04:35:45;;;;;;;4.60;2.38;;;9.40;99.90;;;9.28;100.00;100995.13;5178770;28;20074;-69
2022/12/20 04:38:18;;;;;;;5.15;2.55;;;9.40;99.90;;;9.25;100.00;100994.97;5162105;28;20042;-69
2022/12/20 04:40:52;;;;;;;5.60;2.35;;;9.40;99.90;;;9.23;100.00;100991.44;5162604;28;20050;-69
2022/12/20 04:43:26;;;;;;;4.78;2.40;;;9.40;99.90;;;9.17;100.00;100980.75;5162581;28;20053;-69
2022/12/20 04:46:01;;;;;;;4.22;2.53;;;9.30;99.90;;;9.15;100.00;100985.03;5162268;28;20515;-69
2022/12/20 04:48:34;;;;;;;3.92;2.42;;;9.30;99.90;;;9.14;100.00;100988.44;5162134;28;20495;-69
2022/12/20 04:51:07;;;;;;;5.20;2.42;;;9.30;99.90;;;9.12;100.00;100984.88;5163796;28;20586;-70
2022/12/20 04:53:47;;;;;;;5.80;2.83;;;9.30;99.90;;;9.10;100.00;100989.13;5162215;28;20054;-69
2022/12/20 04:56:30;;;;;;;4.32;2.88;;;9.30;99.90;;;9.10;100.00;100996.94;5162332;28;20057;-70
2022/12/20 04:59:09;;;;;;;5.47;2.40;;;9.20;99.90;;;9.08;100.00;100989.06;5162366;28;20457;-70
2022/12/20 05:01:42;;;;;;;5.43;2.80;;;9.20;99.90;;;9.06;100.00;100987.19;5162154;28;20047;-70
2022/12/20 05:04:15;;;;;;;4.43;2.60;;;9.20;99.90;;;9.03;100.00;100972.38;5162182;28;20050;-70
2022/12/20 05:06:49;;;;;;;5.78;3.05;;;9.20;99.90;;;9.02;100.00;100962.78;5163404;28;20062;-71
2022/12/20 05:09:21;;;;;;;6.38;2.65;;;9.20;99.90;;;9.00;100.00;100968.72;5161864;28;20050;-70
2022/12/20 05:11:54;;;;;;;5.13;2.90;;;9.10;99.90;;;9.00;100.00;100966.13;5162031;28;20046;-66
2022/12/20 05:14:26;;;;;;;7.82;2.88;;;9.10;99.90;;;8.97;100.00;100957.38;5162232;28;20065;-68
2022/12/20 05:16:58;;;;;;;6.68;2.78;;;9.10;99.90;;;8.95;100.00;100966.84;5159970;28;20042;-69
2022/12/20 05:19:31;;;;;;;5.50;2.53;;;9.10;99.90;;;8.95;100.00;100960.75;5143983;28;20038;-70
2022/12/20 05:28:01;;;;;;;4.03;2.38;;;9.10;99.90;;;8.97;100.00;100961.69;5166936;28;20035;-69
2022/12/20 05:30:38;;;;;;;7.35;2.58;;;9.10;99.90;;;8.95;100.00;100963.34;5169505;28;20062;-69
2022/12/20 05:33:10;;;;;;;4.90;2.90;;;9.10;99.90;;;8.92;100.00;100966.69;5168776;28;20053;-71
2022/12/20 05:35:44;;;;;;;4.78;2.65;;;9.10;99.90;;;8.92;100.00;100958.88;5181837;28;20411;-71
2022/12/20 05:38:20;;;;;;;4.95;2.63;;;9.10;99.90;;;8.92;100.00;100958.88;5167312;28;20700;-69
2022/12/20 05:40:52;;;;;;;6.63;2.55;;;9.10;99.90;;;8.92;100.00;100948.47;5171371;28;20050;-70
2022/12/20 05:43:25;;;;;;;4.20;2.83;;;9.10;99.90;;;8.92;100.00;100942.41;5182644;28;20502;-70
2022/12/20 05:45:57;;;;;;;8.75;3.70;;;9.10;99.90;;;8.92;100.00;100930.28;5185589;28;20523;-69
2022/12/20 05:48:38;;;;;;;6.75;3.83;;;9.10;99.90;;;8.91;100.00;100925.91;5184565;28;20510;-69
2022/12/20 05:51:10;;;;;;;7.05;3.47;;;9.10;99.90;;;8.91;100.00;100930.22;5186815;28;20534;-69
2022/12/20 05:53:57;;;;;;;5.93;2.70;;;9.10;99.90;;;8.93;100.00;100911.28;5167907;28;20114;-69
2022/12/20 05:56:44;;;;;;;5.38;2.60;;;9.10;99.90;;;8.92;100.00;100932.88;5177155;28;20489;-69
2022/12/20 05:59:18;;;;;;;4.55;2.42;;;9.10;99.90;;;8.92;100.00;100922.50;5165458;28;20069;-69
2022/12/20 06:01:51;;;;;;;4.95;2.70;;;9.10;99.90;;;8.91;100.00;100925.91;5163199;28;20066;-69
2022/12/20 06:04:23;;;;;;;7.13;2.70;;;9.10;99.90;;;8.92;100.00;100926.81;5166039;28;20565;-69
2022/12/20 06:06:58;;;;;;;5.75;2.92;;;9.10;99.90;;;8.87;100.00;100921.44;5201427;22;20049;-66
2022/12/20 06:09:32;;;;;;;4.53;2.65;;;9.10;99.90;;;8.89;100.00;100911.97;5163187;28;20508;-69
2022/12/20 06:12:14;;;;;;;4.72;2.35;;;9.10;99.90;;;8.91;100.00;100909.44;5194558;28;20041;-70
2022/12/20 06:14:47;;;;;;;5.00;2.95;;;9.10;99.90;;;8.90;100.00;100908.53;5167323;28;20050;-69
2022/12/20 06:17:20;;;;;;;5.53;2.58;;;9.10;99.90;;;8.94;100.00;100900.06;5184256;28;20042;-68
2022/12/20 06:19:52;;;;;;;7.35;3.80;;;9.10;99.90;;;8.95;100.00;100907.03;5166819;28;20138;-69
2022/12/20 06:22:25;;;;;;;6.47;2.90;;;9.10;99.90;;;8.98;100.00;100907.16;5164866;28;20097;-69
2022/12/20 06:25:02;;;;;;;4.45;2.35;;;9.10;99.90;;;9.00;100.00;100916.72;5167554;28;20053;-69
2022/12/20 06:27:37;;;;;;;4.15;2.33;;;9.10;99.90;;;9.00;100.00;100919.31;5179182;28;20413;-70
2022/12/20 06:30:14;;;;;;;7.00;2.70;;;9.10;99.90;;;9.01;100.00;100924.63;5155342;28;20435;-69
2022/12/20 06:33:09;;;;;;;7.53;3.08;;;9.10;99.90;;;8.95;100.00;100904.44;5172880;28;20042;-69
2022/12/20 06:35:41;;;;;;;4.25;2.42;;;9.10;99.90;;;8.93;100.00;100912.97;5166750;28;20452;-69
2022/12/20 06:38:13;;;;;;;5.95;2.65;;;9.10;99.90;;;8.97;100.00;100901.91;5183625;28;20042;-69
2022/12/20 06:40:47;;;;;;;7.60;3.50;;;9.10;99.90;;;9.01;100.00;100900.34;5167079;28;20038;-70
2022/12/20 06:43:19;;;;;;;7.97;3.15;;;9.10;99.90;;;9.03;100.00;100899.56;5167355;28;20058;-69
2022/12/20 06:45:52;;;;;;;5.15;2.88;;;9.20;99.90;;;9.07;100.00;100900.59;5167016;28;20057;-70
2022/12/20 06:48:25;;;;;;;4.60;2.72;;;9.20;99.90;;;9.10;100.00;100901.59;5160833;28;20042;-68
2022/12/20 06:50:57;;;;;;;8.00;4.90;;;9.20;99.90;;;9.13;100.00;100903.44;5164344;28;20143;-69
2022/12/20 06:53:31;;;;;;;8.65;4.93;;;9.20;99.90;;;9.16;100.00;100890.56;5166651;28;20435;-68
2022/12/20 06:56:06;;;;;;;8.43;4.47;;;9.30;99.90;;;9.19;100.00;100901.06;5167254;28;20053;-69
2022/12/20 06:58:38;;;;;;;8.90;4.38;;;9.30;99.90;;;9.22;100.00;100893.44;5183519;28;20071;-71
2022/12/20 07:01:11;;;;;;;8.07;3.97;;;9.30;99.90;;;9.26;100.00;100887.53;5167248;28;20053;-70
2022/12/20 07:03:43;;;;;;;9.10;5.95;;;9.30;99.90;;;9.27;100.00;100888.41;5163069;28;20402;-61
2022/12/20 07:06:15;;;;;;;7.03;4.80;;;9.40;99.90;;;9.30;100.00;100886.81;5183543;28;20045;-62
2022/12/20 07:08:47;;;;;;;7.43;3.80;;;9.40;99.90;;;9.34;100.00;100883.53;5182949;28;20045;-60
2022/12/20 07:11:20;;;;;;;6.28;3.35;;;9.40;99.90;;;9.37;100.00;100881.03;5183493;28;20050;-60
2022/12/20 07:13:56;;;;;;;5.90;3.28;;;9.50;99.90;;;9.40;100.00;100881.19;5177759;28;20046;-61
2022/12/20 07:16:28;;;;;;;8.15;4.05;;;9.50;99.90;;;9.38;100.00;100884.53;5174833;28;20054;-60
2022/12/20 07:19:00;;;;;;;8.35;4.47;;;9.50;99.90;;;9.42;100.00;100874.31;5194899;28;20512;-61
2022/12/20 07:21:32;;;;;;;9.68;5.70;;;9.50;99.90;;;9.46;100.00;100867.53;5203066;28;20037;-60
2022/12/20 07:24:04;;;;;;;11.20;6.97;;;9.60;99.90;;;9.51;100.00;100865.97;5195093;28;20046;-61
2022/12/20 07:26:38;;;;;;;10.25;5.15;;;9.60;99.90;;;9.53;100.00;100853.94;5187321;28;20053;-60
2022/12/20 07:29:10;;;;;;;7.22;3.70;;;9.60;99.90;;;9.55;100.00;100854.00;5182690;28;20427;-61
2022/12/20 07:31:42;;;;;;;12.45;5.93;;;9.70;99.90;;;9.56;100.00;100851.44;5186167;28;20538;-62
2022/12/20 07:34:14;;;;;;;12.10;5.35;;;9.70;99.90;;;9.60;100.00;100847.25;5170830;28;20042;-60
2022/12/20 07:36:46;;;;;;;8.45;4.43;;;9.70;99.90;;;9.62;100.00;100846.50;5169828;28;20042;-60
2022/12/20 07:39:19;;;;;;;12.60;5.22;;;9.70;99.90;;;9.65;100.00;100845.69;5182684;28;20064;-59
2022/12/20 07:41:55;;;;;;;6.25;2.95;;;9.70;99.90;;;9.70;100.00;100850.28;5182003;28;20117;-60
2022/12/20 07:44:28;;;;;;;5.60;3.08;;;9.80;99.90;;;9.70;100.00;100849.38;5165205;28;20096;-59
2022/12/20 07:47:00;;;;;;;5.72;3.03;;;9.80;99.90;;;9.71;100.00;100848.56;5175603;28;20042;-59
2022/12/20 07:49:32;;;;;;;6.82;3.10;;;9.80;99.90;;;9.70;100.00;100859.78;5182257;28;20050;-59
2022/12/20 07:52:05;;;;;;;6.75;3.42;;;9.80;99.90;;;9.76;100.00;100867.84;5183073;28;20037;-60
2022/12/20 07:54:45;;;;;;;5.55;3.22;;;9.80;99.90;;;9.76;100.00;100860.03;5162774;28;20054;-59
2022/12/20 07:57:26;;;;;;;5.20;3.10;;;9.80;99.90;;;9.78;100.00;100868.81;5162963;28;20058;-60
2022/12/20 08:00:00;;;;;;;5.65;3.85;;;9.80;99.90;;;9.81;100.00;100868.03;5170200;28;20502;-60
2022/12/20 08:02:37;;;;;;;6.25;3.30;;;9.80;99.90;;;9.81;100.00;100862.81;5198053;28;20422;-58
2022/12/20 08:05:11;;;;;;;4.72;2.53;;;9.80;99.90;;;9.77;100.00;100856.59;5182682;28;20398;-60
2022/12/20 08:07:45;;;;;;;3.88;2.20;;;9.80;99.90;;;9.77;100.00;100857.47;5182092;28;20045;-61
2022/12/20 08:10:19;;;;;;;5.57;2.58;;;9.80;99.90;;;9.75;100.00;100864.34;5183654;28;20091;-59
2022/12/20 08:12:52;;;;;;;4.97;2.42;;;9.90;99.90;;;9.76;100.00;100871.34;5183186;28;20465;-60
2022/12/20 08:15:25;;;;;;;4.70;2.47;;;9.90;99.90;;;9.79;100.00;100857.56;5165635;28;20053;-60
2022/12/20 08:17:58;;;;;;;4.85;2.63;;;9.90;99.90;;;9.81;100.00;100863.72;5182918;28;20052;-60
2022/12/20 08:20:30;;;;;;;4.32;2.13;;;9.90;99.90;;;9.81;100.00;100857.63;5183144;28;20049;-59
2022/12/20 08:23:03;;;;;;;4.43;1.83;;;9.90;99.90;;;9.75;100.00;100846.13;5183393;28;20060;-60
2022/12/20 08:25:35;;;;;;;4.47;2.47;;;9.90;99.90;;;9.74;100.00;100843.47;5165687;28;20053;-60
2022/12/20 08:28:09;;;;;;;4.75;2.40;;;9.90;99.90;;;9.72;100.00;100840.81;5183053;28;20533;-60
2022/12/20 08:30:41;;;;;;;3.90;2.25;;;9.90;99.90;;;9.72;100.00;100850.34;5183229;28;20041;-60
2022/12/20 08:33:13;;;;;;;5.47;2.55;;;9.80;99.90;;;9.72;100.00;100851.25;5183394;28;20046;-60
2022/12/20 08:35:45;;;;;;;5.38;2.20;;;9.80;99.90;;;9.77;100.00;100856.59;5181220;28;20495;-60
2022/12/20 08:38:17;;;;;;;4.43;2.10;;;9.90;99.90;;;9.79;100.00;100853.25;5182628;28;20052;-59
2022/12/20 08:40:49;;;;;;;4.35;2.35;;;9.90;99.90;;;9.81;100.00;100848.09;5182819;28;20049;-59
2022/12/20 08:43:23;;;;;;;4.80;2.50;;;9.90;99.90;;;9.88;100.00;100855.31;5181718;28;20047;-59
2022/12/20 08:45:55;;;;;;;3.38;2.45;;;9.90;99.90;;;9.92;100.00;100846.78;5173059;28;20046;-59
2022/12/20 08:48:28;;;;;;;5.97;2.60;;;10.00;99.90;;;10.02;100.00;100845.41;5183323;28;20053;-59
2022/12/20 08:51:05;;;;;;;3.60;2.00;;;10.00;99.90;;;10.04;100.00;100849.88;5183379;28;20049;-59
2022/12/20 08:53:38;;;;;;;4.68;2.30;;;10.10;99.90;;;10.06;100.00;100842.09;5184375;28;20506;-60
2022/12/20 08:56:13;;;;;;;4.03;2.22;;;10.10;99.90;;;10.10;100.00;100849.19;5187208;28;20038;-60
2022/12/20 08:58:47;;;;;;;3.70;1.80;;;10.10;99.90;;;10.24;100.00;100840.22;5187064;28;20049;-62
2022/12/20 09:01:21;;;;;;;4.13;2.20;;;10.30;99.90;;;10.49;100.00;100848.91;5187352;28;20045;-61
2022/12/20 09:03:53;;;;;;;2.70;1.65;;;10.50;99.90;;;10.52;100.00;100843.81;5187474;28;20438;-60
2022/12/20 09:06:26;;;;;;;2.75;1.90;;;10.60;99.90;;;10.52;100.00;100844.72;5187163;28;20407;-59
2022/12/20 09:09:00;;;;;;;2.97;1.92;;;10.60;99.90;;;10.49;100.00;100857.63;5191914;28;20495;-60
2022/12/20 09:11:32;;;;;;;2.83;1.98;;;10.60;99.90;;;10.49;100.00;100851.50;5183506;28;20046;-60
2022/12/20 09:14:07;;;;;;;3.55;1.95;;;10.60;99.90;;;10.49;100.00;100852.41;5187021;28;20046;-59
2022/12/20 09:16:39;;;;;;;3.67;1.70;;;10.50;99.90;;;10.48;100.00;100853.22;5176156;28;20044;-59
2022/12/20 09:19:13;;;;;;;2.63;1.80;;;10.50;99.90;;;10.50;100.00;100849.00;5185795;28;20033;-59
2022/12/20 09:21:45;;;;;;;3.65;2.22;;;10.50;99.90;;;10.50;100.00;100854.19;5187093;28;20056;-59
2022/12/20 09:24:18;;;;;;;2.72;1.90;;;10.60;99.90;;;10.52;100.00;100856.84;5187009;28;20053;-59
2022/12/20 09:26:50;;;;;;;3.00;1.60;;;10.60;99.90;;;10.54;100.00;100871.69;5186712;28;20053;-59
2022/12/20 09:29:23;;;;;;;2.45;1.60;;;10.60;99.90;;;10.53;100.00;100874.25;5186389;28;20042;-59
2022/12/20 09:31:55;;;;;;;2.03;1.60;;;10.60;99.90;;;10.50;100.00;100874.16;5186951;28;20056;-59
2022/12/20 09:34:27;;;;;;;4.65;1.65;;;10.50;99.90;;;10.46;100.00;100872.28;5186749;28;20042;-61
2022/12/20 09:36:59;;;;;;;2.88;1.52;;;10.50;99.90;;;10.43;100.00;100872.13;5187181;28;20042;-59
2022/12/20 09:39:32;;;;;;;2.08;1.45;;;10.50;99.90;;;10.41;100.00;100872.09;5186019;28;20046;-59
2022/12/20 09:42:08;;;;;;;5.53;2.05;;;10.50;99.90;;;10.39;100.00;100860.72;5186743;28;20068;-60
2022/12/20 09:44:42;;;;;;;5.57;2.35;;;10.50;99.90;;;10.36;100.00;100865.81;5186755;28;20117;-59
2022/12/20 09:47:19;;;;;;;2.80;1.80;;;10.40;99.90;;;10.35;100.00;100857.94;5186331;28;20126;-59
2022/12/20 09:49:57;;;;;;;3.45;1.75;;;10.40;99.90;;;10.32;100.00;100850.91;5186115;28;20056;-59
2022/12/20 09:52:46;;;;;;;2.63;1.83;;;10.40;99.90;;;10.25;100.00;100851.53;5186635;28;20038;-59
2022/12/20 09:55:28;;;;;;;4.05;1.90;;;10.30;99.90;;;10.21;100.00;100855.69;5186468;28;20054;-59
2022/12/20 09:58:30;;;;;;;2.47;1.88;;;10.30;99.90;;;10.20;100.00;100859.13;5186204;28;20069;-61
2022/12/20 10:01:17;;;;;;;3.13;1.92;;;10.30;99.90;;;10.15;100.00;100854.56;5186148;28;20054;-59
2022/12/20 10:03:49;;;;;;;3.40;1.77;;;10.20;99.90;;;10.11;100.00;100851.00;5186320;28;20042;-59
2022/12/20 10:06:40;;;;;;;3.83;2.08;;;10.20;99.90;;;10.05;100.00;100849.03;5185078;28;20053;-59
2022/12/20 10:09:30;;;;;;;4.47;2.20;;;10.20;99.90;;;10.00;100.00;100839.28;5185466;28;20046;-60
2022/12/20 10:12:15;;;;;;;5.30;2.30;;;10.10;99.90;;;9.95;100.00;100836.47;5186482;28;20057;-60
2022/12/20 10:15:08;;;;;;;3.75;1.90;;;10.10;99.90;;;9.94;100.00;100850.34;5186068;28;20531;-60
2022/12/20 10:17:58;;;;;;;3.75;1.95;;;10.10;99.90;;;9.92;100.00;100841.59;5185413;28;20438;-59
2022/12/20 10:20:42;;;;;;;3.63;1.85;;;10.00;99.90;;;9.92;100.00;100838.09;5185975;28;20038;-60
2022/12/20 10:23:22;;;;;;;4.95;2.20;;;10.00;99.90;;;9.89;100.00;100837.97;5185920;28;20069;-59
2022/12/20 10:25:57;;;;;;;2.75;1.92;;;10.00;99.90;;;9.88;100.00;100838.81;5185974;28;20068;-59
2022/12/20 10:28:30;;;;;;;;;;;10.00;99.90;;;9.86;100.00;100846.56;5185858;28;20042;-60
2022/12/20 10:31:05;;;;;;;3.15;1.95;;;10.00;99.90;;;9.86;100.00;100843.97;5185672;28;19932;-60
2022/12/20 10:33:39;;;;;;;4.45;2.08;;;9.90;99.90;;;9.86;100.00;100830.94;5185491;28;20439;-60
2022/12/20 10:36:22;;;;;;;4.32;2.25;;;9.90;99.90;;;9.84;100.00;100827.38;5169034;28;20156;-61
2022/12/20 10:38:57;;;;;;;4.85;2.13;;;9.90;99.90;;;9.83;100.00;100812.56;5186211;28;20045;-60
2022/12/20 10:41:31;;;;;;;6.13;2.85;;;9.90;99.90;;;9.84;100.00;100805.66;5186211;28;20562;-59
2022/12/20 10:44:17;;;;;;;5.57;2.60;;;9.90;99.90;;;9.82;100.00;100792.59;5186343;28;20053;-60
2022/12/20 10:46:54;;;;;;;4.13;2.38;;;10.00;99.90;;;9.82;100.00;100782.16;5186416;28;20046;-60
2022/12/20 10:49:34;;;;;;;5.50;2.70;;;9.90;99.90;;;9.85;100.00;100781.41;5185902;28;20050;-59
2022/12/20 10:52:13;;;;;;;5.15;2.55;;;9.90;99.90;;;9.87;100.00;100785.84;5185578;28;20046;-59
2022/12/20 10:54:46;;;;;;;5.78;2.63;;;10.00;99.90;;;9.89;100.00;100783.28;5185510;28;20049;-60
2022/12/20 10:57:22;;;;;;;6.53;2.60;;;10.00;99.90;;;9.91;100.00;100786.81;5184709;28;20552;-60
2022/12/20 10:59:57;;;;;;;4.65;2.75;;;10.00;99.90;;;9.94;100.00;100787.84;5185369;28;20038;-60